Terminal Aerodrome Forecast
Issued by NWS

Current Version | Previous Version | Graphics & Text | Print | Product List | Glossary On
Versions: 1 2 3 4 5 6 7 8 9 10 11 12 13 14 15 16 17 18 19 20 21 22 23 24 25 26 27 28
000
FTUS41 KPBZ 150500
TAFMGW
TAF
KMGW 150537Z 1506/1606 23003KT 4SM BR OVC005
     FM151000 VRB03KT 2SM BR OVC004
     FM151300 VRB03KT 2SM BR OVC008
     FM151500 13005KT 5SM HZ BKN015
     FM160100 09004KT P6SM BKN250=

USA.gov is the U.S. government's official web portal to all federal, state and local government web resources and services.